Time;durP1;ratioP1;P1;durP2;ratioP2;P2;SDS_P1;SDS_P2;PMS_P1;PMS_P2;Temp;Humidity;BMP_temperature;BMP_pressure;BME280_temperature;BME280_humidity;BME280_pressure;Samples;Min_cycle;Max_cycle;Signal;HPM_P1;HPM_P2
2023/01/21 00:01:58;;;;;;;46.53;24.70;;;;;;;;;;5042301;28;20036;-75
2023/01/21 00:04:24;;;;;;;42.90;24.25;;;;;;;;;;5045512;28;20052;-75
2023/01/21 00:06:50;;;;;;;44.92;24.42;;;;;;;;;;5054338;28;20025;-77
2023/01/21 00:09:16;;;;;;;45.42;25.20;;;;;;;;;;5044947;28;20166;-75
2023/01/21 00:11:42;;;;;;;46.53;25.90;;;;;;;;;;5051725;28;20098;-75
2023/01/21 00:14:08;;;;;;;45.70;23.58;;;;;;;;;;5046865;28;20045;-76
2023/01/21 00:16:34;;;;;;;46.40;24.13;;;;;;;;;;5048664;28;20098;-75
2023/01/21 00:19:00;;;;;;;43.28;23.90;;;;;;;;;;5040979;28;20065;-76
2023/01/21 00:21:26;;;;;;;43.67;24.20;;;;;;;;;;5049327;28;20037;-75
2023/01/21 00:23:52;;;;;;;40.00;23.13;;;;;;;;;;5041814;28;20573;-76
2023/01/21 00:26:18;;;;;;;42.70;22.42;;;;;;;;;;5060940;28;20036;-75
2023/01/21 00:28:45;;;;;;;43.88;23.30;;;;;;;;;;5045822;28;20044;-75
2023/01/21 00:31:11;;;;;;;41.40;23.27;;;;;;;;;;5043679;28;20036;-74
2023/01/21 00:33:38;;;;;;;46.75;23.77;;;;;;;;;;5049768;28;20082;-75
2023/01/21 00:36:05;;;;;;;40.67;23.55;;;;;;;;;;5052473;28;20473;-75
2023/01/21 00:38:31;;;;;;;43.50;23.98;;;;;;;;;;5057784;28;20065;-75
2023/01/21 00:41:04;;;;;;;39.65;23.08;;;;;;;;;;5050697;28;20066;-76
2023/01/21 00:43:30;;;;;;;46.97;24.15;;;;;;;;;;5054208;28;20470;-75
2023/01/21 00:45:56;;;;;;;43.53;21.77;;;;;;;;;;5044905;28;20112;-76
2023/01/21 00:48:22;;;;;;;41.03;22.70;;;;;;;;;;5042015;28;20040;-75
2023/01/21 00:50:50;;;;;;;41.15;23.70;;;;;;;;;;5042357;28;20856;-75
2023/01/21 00:53:16;;;;;;;42.28;22.52;;;;;;;;;;5038355;28;20166;-75
2023/01/21 00:55:42;;;;;;;41.25;24.98;;;;;;;;;;5036012;28;20049;-76
2023/01/21 00:58:09;;;;;;;44.80;22.23;;;;;;;;;;5036708;28;20044;-76
2023/01/21 01:00:35;;;;;;;39.03;21.70;;;;;;;;;;5038895;28;20071;-75
2023/01/21 01:03:01;;;;;;;39.60;22.67;;;;;;;;;;5038754;28;20071;-76
2023/01/21 01:05:27;;;;;;;43.03;22.13;;;;;;;;;;5049685;28;20581;-76
2023/01/21 01:07:53;;;;;;;40.13;23.05;;;;;;;;;;5064728;28;20041;-76
2023/01/21 01:10:19;;;;;;;41.53;22.50;;;;;;;;;;5046776;28;20028;-76
2023/01/21 01:12:45;;;;;;;45.40;24.02;;;;;;;;;;5060319;28;20070;-75
2023/01/21 01:15:11;;;;;;;48.22;25.08;;;;;;;;;;5055792;28;20032;-75
2023/01/21 01:17:37;;;;;;;45.88;23.90;;;;;;;;;;5054044;28;20090;-76
2023/01/21 01:20:04;;;;;;;42.05;23.02;;;;;;;;;;5042738;28;20079;-76
2023/01/21 01:22:30;;;;;;;42.08;23.52;;;;;;;;;;5054223;28;20078;-76
2023/01/21 01:24:56;;;;;;;46.95;23.42;;;;;;;;;;5042351;28;20025;-75
2023/01/21 01:27:22;;;;;;;41.58;22.85;;;;;;;;;;5055912;28;20052;-75
2023/01/21 01:29:48;;;;;;;41.55;23.42;;;;;;;;;;5046265;28;20478;-75
2023/01/21 01:32:14;;;;;;;44.08;23.88;;;;;;;;;;5048988;28;20038;-75
2023/01/21 01:34:40;;;;;;;40.55;22.85;;;;;;;;;;5049692;28;20036;-75
2023/01/21 01:37:06;;;;;;;46.58;24.35;;;;;;;;;;5057122;28;20041;-74
2023/01/21 01:39:32;;;;;;;42.33;23.38;;;;;;;;;;5067097;28;20033;-74
2023/01/21 01:41:58;;;;;;;41.17;23.38;;;;;;;;;;5051234;28;20338;-75
2023/01/21 01:44:43;;;;;;;49.33;23.70;;;;;;;;;;5051361;28;20029;-74
2023/01/21 01:47:09;;;;;;;43.80;23.85;;;;;;;;;;5048914;28;20055;-75
2023/01/21 01:49:36;;;;;;;46.25;23.77;;;;;;;;;;5050686;28;20048;-74
2023/01/21 01:52:03;;;;;;;40.33;21.52;;;;;;;;;;5053833;28;20485;-76
2023/01/21 01:54:33;;;;;;;43.97;23.77;;;;;;;;;;5055008;28;20143;-75
2023/01/21 01:57:01;;;;;;;41.55;22.83;;;;;;;;;;5065665;28;20040;-78
2023/01/21 01:59:28;;;;;;;42.45;23.27;;;;;;;;;;5065193;28;20025;-74
2023/01/21 02:01:56;;;;;;;39.22;23.05;;;;;;;;;;5045405;28;20174;-74
2023/01/21 02:04:23;;;;;;;41.38;22.85;;;;;;;;;;5061090;28;20480;-74
2023/01/21 02:06:50;;;;;;;41.67;22.20;;;;;;;;;;5039988;28;20555;-74
2023/01/21 02:09:16;;;;;;;46.03;24.70;;;;;;;;;;5046283;28;20120;-76
2023/01/21 02:11:42;;;;;;;46.47;23.33;;;;;;;;;;5036711;28;20028;-77
2023/01/21 02:14:08;;;;;;;41.15;23.25;;;;;;;;;;5044807;28;20036;-76
2023/01/21 02:16:46;;;;;;;44.30;23.50;;;;;;;;;;5041325;28;20440;-76
2023/01/21 02:19:12;;;;;;;43.10;24.50;;;;;;;;;;5045825;28;20374;-77
2023/01/21 02:21:59;;;;;;;42.25;22.20;;;;;;;;;;5043127;28;20352;-76
2023/01/21 02:24:43;;;;;;;40.08;23.60;;;;;;;;;;5046197;28;20171;-76
2023/01/21 02:27:19;;;;;;;39.47;21.95;;;;;;;;;;5049531;28;20260;-76
2023/01/21 02:29:45;;;;;;;44.72;23.08;;;;;;;;;;5057830;28;20382;-76
2023/01/21 02:32:17;;;;;;;42.60;22.30;;;;;;;;;;5045853;28;20033;-76
2023/01/21 02:34:43;;;;;;;41.53;21.23;;;;;;;;;;5051521;28;20439;-75
2023/01/21 02:37:12;;;;;;;42.10;23.58;;;;;;;;;;5048699;28;20112;-76
2023/01/21 02:39:41;;;;;;;44.38;22.20;;;;;;;;;;5056850;28;20032;-74
2023/01/21 02:42:27;;;;;;;45.13;22.67;;;;;;;;;;5051739;28;20020;-76
2023/01/21 02:44:53;;;;;;;46.17;22.52;;;;;;;;;;5047907;28;20610;-77
2023/01/21 02:47:26;;;;;;;45.10;21.73;;;;;;;;;;5060722;28;20116;-77
2023/01/21 02:49:55;;;;;;;39.72;21.92;;;;;;;;;;5047648;28;20036;-76
2023/01/21 02:52:23;;;;;;;43.28;23.25;;;;;;;;;;5048959;28;20457;-77
2023/01/21 02:54:59;;;;;;;42.38;22.42;;;;;;;;;;5056812;28;20055;-77
2023/01/21 02:57:28;;;;;;;45.85;24.33;;;;;;;;;;5088968;28;20469;-76
2023/01/21 02:59:55;;;;;;;39.85;23.27;;;;;;;;;;5089189;28;20137;-76
2023/01/21 03:02:27;;;;;;;48.47;24.02;;;;;;;;;;5097071;28;20038;-76
2023/01/21 03:05:14;;;;;;;44.75;23.58;;;;;;;;;;5102178;28;20027;-76
2023/01/21 03:08:00;;;;;;;46.63;23.95;;;;;;;;;;5067741;28;20036;-74
2023/01/21 03:10:29;;;;;;;47.28;25.58;;;;;;;;;;5069339;28;20082;-76
2023/01/21 03:12:59;;;;;;;43.50;23.90;;;;;;;;;;5090506;28;20450;-77
2023/01/21 03:18:29;;;;;;;45.80;23.65;;;;;;;;;;5094978;28;20051;-76
2023/01/21 03:20:57;;;;;;;41.75;22.95;;;;;;;;;;5087112;28;20043;-76
2023/01/21 03:23:27;;;;;;;44.75;24.52;;;;;;;;;;5089955;28;20051;-76
2023/01/21 03:25:55;;;;;;;47.35;23.60;;;;;;;;;;5089191;28;20038;-77
2023/01/21 03:28:22;;;;;;;42.08;24.45;;;;;;;;;;5095837;28;20032;-76
2023/01/21 03:30:51;;;;;;;47.00;22.75;;;;;;;;;;5083878;28;20032;-76
2023/01/21 03:33:18;;;;;;;43.67;22.58;;;;;;;;;;5080573;28;20477;-75
2023/01/21 03:35:45;;;;;;;39.42;22.90;;;;;;;;;;5073022;28;20024;-76
2023/01/21 03:38:26;;;;;;;44.55;24.17;;;;;;;;;;5090948;28;20089;-78
2023/01/21 03:40:55;;;;;;;43.22;24.33;;;;;;;;;;5092408;28;20488;-78
2023/01/21 03:43:21;;;;;;;62.03;30.00;;;;;;;;;;5090868;28;20082;-79
2023/01/21 03:45:59;;;;;;;56.92;25.65;;;;;;;;;;5087375;28;20408;-79
2023/01/21 03:48:43;;;;;;;47.83;23.67;;;;;;;;;;5070367;28;20295;-77
2023/01/21 03:51:12;;;;;;;45.50;25.00;;;;;;;;;;5079060;28;20146;-77
2023/01/21 03:53:38;;;;;;;46.00;23.65;;;;;;;;;;5076593;28;20027;-80
2023/01/21 03:56:04;;;;;;;53.28;25.50;;;;;;;;;;5076872;28;20048;-80
2023/01/21 03:58:30;;;;;;;46.63;23.77;;;;;;;;;;5082331;28;20037;-80
2023/01/21 04:00:56;;;;;;;48.20;24.70;;;;;;;;;;5066841;28;20500;-80
2023/01/21 04:03:22;;;;;;;42.85;23.27;;;;;;;;;;5085148;28;20035;-79
2023/01/21 04:05:48;;;;;;;53.55;25.10;;;;;;;;;;5085387;28;20047;-80
2023/01/21 04:08:14;;;;;;;41.95;22.60;;;;;;;;;;5087485;28;20028;-81
2023/01/21 04:10:40;;;;;;;49.83;24.35;;;;;;;;;;5081592;28;20388;-79
2023/01/21 04:13:06;;;;;;;48.90;24.75;;;;;;;;;;5087276;28;20438;-78
2023/01/21 04:15:32;;;;;;;51.20;23.73;;;;;;;;;;5080974;28;20028;-78
2023/01/21 04:17:58;;;;;;;54.55;26.13;;;;;;;;;;5068640;28;20039;-78
2023/01/21 04:20:24;;;;;;;47.45;23.88;;;;;;;;;;5088909;28;20036;-78
2023/01/21 04:22:50;;;;;;;44.50;23.70;;;;;;;;;;5087685;28;20271;-78
2023/01/21 04:25:17;;;;;;;47.42;25.08;;;;;;;;;;5088925;28;20492;-76
2023/01/21 04:27:43;;;;;;;46.85;23.58;;;;;;;;;;5090109;28;20081;-76
2023/01/21 04:30:09;;;;;;;50.25;25.05;;;;;;;;;;5092531;28;20063;-77
2023/01/21 04:32:36;;;;;;;46.58;23.90;;;;;;;;;;5088522;28;20590;-76
2023/01/21 04:35:02;;;;;;;48.00;25.17;;;;;;;;;;5069218;28;20052;-77
2023/01/21 04:37:28;;;;;;;50.58;26.35;;;;;;;;;;5079474;28;20025;-77
2023/01/21 04:39:54;;;;;;;52.80;26.23;;;;;;;;;;5058510;28;20090;-77
2023/01/21 04:42:20;;;;;;;297.52;148.60;;;;;;;;;;5084948;28;20020;-75
2023/01/21 04:44:46;;;;;;;53.22;27.00;;;;;;;;;;5077089;28;20019;-76
2023/01/21 04:47:12;;;;;;;75.45;36.63;;;;;;;;;;5087942;28;20032;-74
2023/01/21 04:49:38;;;;;;;51.28;27.33;;;;;;;;;;5076055;28;20089;-75
2023/01/21 04:52:05;;;;;;;52.50;26.10;;;;;;;;;;5092895;28;20035;-75
2023/01/21 04:54:31;;;;;;;59.05;27.40;;;;;;;;;;5094110;28;20426;-75
2023/01/21 04:56:58;;;;;;;50.55;25.80;;;;;;;;;;5093785;28;20074;-74
2023/01/21 04:59:24;;;;;;;58.10;26.15;;;;;;;;;;5093335;28;20032;-75
2023/01/21 05:01:50;;;;;;;57.30;27.88;;;;;;;;;;5086734;28;20032;-75
2023/01/21 05:04:16;;;;;;;57.20;26.92;;;;;;;;;;5087747;28;20035;-75
2023/01/21 05:06:42;;;;;;;52.97;27.20;;;;;;;;;;5105358;28;20020;-75
2023/01/21 05:09:08;;;;;;;52.00;26.50;;;;;;;;;;5082232;28;20077;-77
2023/01/21 05:11:34;;;;;;;49.53;25.65;;;;;;;;;;5091519;28;20046;-75
2023/01/21 05:14:00;;;;;;;53.20;26.73;;;;;;;;;;5108268;28;20046;-75
2023/01/21 05:16:26;;;;;;;54.50;26.45;;;;;;;;;;5101884;28;20028;-73
2023/01/21 05:18:52;;;;;;;51.65;26.77;;;;;;;;;;5096529;28;20396;-73
2023/01/21 05:21:18;;;;;;;48.63;26.23;;;;;;;;;;5094209;28;20028;-75
2023/01/21 05:23:44;;;;;;;48.97;25.52;;;;;;;;;;5080049;28;20024;-74
2023/01/21 05:26:10;;;;;;;61.95;27.05;;;;;;;;;;5084982;28;20041;-74
2023/01/21 05:28:36;;;;;;;49.33;25.77;;;;;;;;;;5085538;28;20040;-74
2023/01/21 05:31:02;;;;;;;54.08;26.90;;;;;;;;;;5085867;28;20025;-73
2023/01/21 05:33:30;;;;;;;56.08;27.35;;;;;;;;;;5085011;28;20028;-72
2023/01/21 05:35:56;;;;;;;51.38;26.58;;;;;;;;;;5082157;28;20020;-72
2023/01/21 05:38:22;;;;;;;53.00;26.33;;;;;;;;;;5086047;28;20362;-72
2023/01/21 05:40:48;;;;;;;51.88;26.77;;;;;;;;;;5106217;28;20434;-72
2023/01/21 05:43:14;;;;;;;56.17;28.17;;;;;;;;;;5093865;28;20389;-72
2023/01/21 05:45:40;;;;;;;54.55;28.40;;;;;;;;;;5077101;28;20032;-73
2023/01/21 05:48:06;;;;;;;52.78;28.20;;;;;;;;;;5101611;28;20044;-73
2023/01/21 05:50:32;;;;;;;57.97;28.83;;;;;;;;;;5107010;28;20110;-73
2023/01/21 05:52:58;;;;;;;52.75;27.35;;;;;;;;;;5086765;28;20036;-73
2023/01/21 05:55:24;;;;;;;52.15;27.20;;;;;;;;;;5082554;28;20105;-73
2023/01/21 05:57:50;;;;;;;53.90;28.85;;;;;;;;;;5080609;28;20044;-74
2023/01/21 06:00:16;;;;;;;52.08;26.15;;;;;;;;;;5086848;28;20033;-73
2023/01/21 06:02:42;;;;;;;56.58;27.00;;;;;;;;;;5077894;28;20047;-73
2023/01/21 06:05:09;;;;;;;53.60;26.88;;;;;;;;;;5091661;28;20032;-73
2023/01/21 06:07:35;;;;;;;54.80;27.70;;;;;;;;;;5092880;28;20510;-75
2023/01/21 06:10:01;;;;;;;52.83;26.58;;;;;;;;;;5088317;28;20575;-74
2023/01/21 06:12:27;;;;;;;51.80;28.63;;;;;;;;;;5074051;28;20370;-74
2023/01/21 06:14:53;;;;;;;64.70;27.77;;;;;;;;;;5073016;28;20388;-73
2023/01/21 06:17:19;;;;;;;65.20;27.42;;;;;;;;;;5092502;28;20036;-73
2023/01/21 06:19:45;;;;;;;53.15;28.30;;;;;;;;;;5091342;28;20109;-74
2023/01/21 06:22:15;;;;;;;52.55;27.58;;;;;;;;;;5092032;28;20036;-74
2023/01/21 06:24:41;;;;;;;60.00;28.75;;;;;;;;;;5097983;28;20032;-73
2023/01/21 06:27:07;;;;;;;54.72;27.75;;;;;;;;;;5096366;28;20028;-74
2023/01/21 06:29:33;;;;;;;54.53;28.48;;;;;;;;;;5096522;28;20085;-73
2023/01/21 06:31:59;;;;;;;54.67;28.98;;;;;;;;;;5096592;28;20043;-74
2023/01/21 06:34:25;;;;;;;57.03;29.10;;;;;;;;;;5091396;28;20043;-73
2023/01/21 06:36:51;;;;;;;51.35;28.33;;;;;;;;;;5104992;28;20044;-74
2023/01/21 06:39:17;;;;;;;53.83;28.08;;;;;;;;;;5091543;28;20107;-74
2023/01/21 06:41:43;;;;;;;57.38;28.60;;;;;;;;;;5084546;28;20039;-73
2023/01/21 06:44:09;;;;;;;50.38;28.63;;;;;;;;;;5088549;28;20036;-74
2023/01/21 06:46:35;;;;;;;55.63;26.45;;;;;;;;;;5090555;28;20027;-73
2023/01/21 06:49:01;;;;;;;53.75;28.88;;;;;;;;;;5092036;28;20275;-73
2023/01/21 06:51:27;;;;;;;51.65;27.85;;;;;;;;;;5099572;28;20761;-72
2023/01/21 06:53:54;;;;;;;55.42;27.92;;;;;;;;;;5091335;28;20042;-72
2023/01/21 06:56:20;;;;;;;55.50;28.67;;;;;;;;;;5105453;28;20048;-73
2023/01/21 06:58:47;;;;;;;58.03;29.08;;;;;;;;;;5058748;28;20035;-73
2023/01/21 07:01:13;;;;;;;59.78;29.70;;;;;;;;;;5091931;28;20387;-72
2023/01/21 07:03:39;;;;;;;54.33;28.38;;;;;;;;;;5090909;28;20048;-73
2023/01/21 07:06:05;;;;;;;51.38;27.38;;;;;;;;;;5095879;28;20106;-74
2023/01/21 07:08:31;;;;;;;60.75;29.70;;;;;;;;;;5091405;28;20090;-74
2023/01/21 07:10:57;;;;;;;51.05;28.55;;;;;;;;;;5090378;28;20025;-73
2023/01/21 07:13:23;;;;;;;56.13;28.08;;;;;;;;;;5105639;28;20034;-72
2023/01/21 07:15:49;;;;;;;56.33;29.02;;;;;;;;;;5097932;28;20032;-72
2023/01/21 07:18:15;;;;;;;55.28;27.85;;;;;;;;;;5090466;28;20063;-73
2023/01/21 07:20:41;;;;;;;54.90;29.35;;;;;;;;;;5088605;28;20028;-73
2023/01/21 07:23:07;;;;;;;56.78;27.17;;;;;;;;;;5087555;28;20028;-73
2023/01/21 07:25:36;;;;;;;51.40;26.67;;;;;;;;;;5086554;28;20086;-71
2023/01/21 07:28:02;;;;;;;53.97;28.35;;;;;;;;;;5096376;28;20043;-73
2023/01/21 07:30:28;;;;;;;52.80;26.80;;;;;;;;;;5090936;28;20024;-73
2023/01/21 07:32:54;;;;;;;51.47;27.63;;;;;;;;;;5071443;28;20094;-72
2023/01/21 07:35:20;;;;;;;49.50;27.63;;;;;;;;;;5090796;28;20028;-72
2023/01/21 07:37:46;;;;;;;53.05;26.88;;;;;;;;;;5087721;28;20066;-72
2023/01/21 07:40:12;;;;;;;50.95;26.75;;;;;;;;;;5090593;28;20522;-72
2023/01/21 07:42:38;;;;;;;51.90;28.17;;;;;;;;;;5102364;28;20119;-72
2023/01/21 07:45:05;;;;;;;50.33;26.80;;;;;;;;;;5105459;28;20074;-73
2023/01/21 07:47:31;;;;;;;53.58;27.50;;;;;;;;;;5090003;28;20427;-74
2023/01/21 07:49:57;;;;;;;52.63;27.85;;;;;;;;;;5083322;28;20036;-73
2023/01/21 07:52:23;;;;;;;57.13;29.50;;;;;;;;;;5085777;28;20079;-72
2023/01/21 07:54:49;;;;;;;71.15;34.70;;;;;;;;;;5089887;28;20071;-72
2023/01/21 07:57:15;;;;;;;72.35;35.80;;;;;;;;;;5070319;28;20122;-73
2023/01/21 07:59:41;;;;;;;61.92;32.10;;;;;;;;;;5078167;28;20044;-73
2023/01/21 08:02:07;;;;;;;63.67;30.90;;;;;;;;;;5091553;28;20028;-72
2023/01/21 08:04:33;;;;;;;60.63;32.17;;;;;;;;;;5088522;28;20024;-72
2023/01/21 08:07:05;;;;;;;56.30;29.80;;;;;;;;;;5098301;28;20035;-73
2023/01/21 08:09:31;;;;;;;57.28;28.08;;;;;;;;;;5086147;28;20032;-73
2023/01/21 08:11:57;;;;;;;60.85;28.20;;;;;;;;;;5095625;28;20024;-73
2023/01/21 08:14:23;;;;;;;54.67;27.80;;;;;;;;;;5090221;28;20032;-72
2023/01/21 08:16:49;;;;;;;49.83;27.17;;;;;;;;;;5085165;28;20411;-73
2023/01/21 08:19:15;;;;;;;51.85;28.20;;;;;;;;;;5089844;28;20028;-72
2023/01/21 08:21:41;;;;;;;48.42;27.42;;;;;;;;;;5087194;28;20020;-72
2023/01/21 08:24:09;;;;;;;55.45;27.40;;;;;;;;;;5083802;28;20053;-72
2023/01/21 08:26:35;;;;;;;52.13;28.70;;;;;;;;;;5106561;28;20032;-72
2023/01/21 08:29:01;;;;;;;51.63;30.23;;;;;;;;;;5096500;28;20031;-72
2023/01/21 08:31:27;;;;;;;62.00;31.52;;;;;;;;;;5098874;28;20036;-72
2023/01/21 08:33:53;;;;;;;54.92;29.95;;;;;;;;;;5091941;28;20019;-72
2023/01/21 08:36:19;;;;;;;54.45;29.52;;;;;;;;;;5108429;28;20464;-72
2023/01/21 08:38:47;;;;;;;58.03;30.60;;;;;;;;;;5088050;28;20036;-73
2023/01/21 08:41:13;;;;;;;64.15;34.22;;;;;;;;;;5080620;28;20039;-73
2023/01/21 08:43:39;;;;;;;57.38;31.67;;;;;;;;;;5085585;28;20388;-72
2023/01/21 08:46:05;;;;;;;59.90;34.00;;;;;;;;;;5078014;28;20548;-74
2023/01/21 08:48:31;;;;;;;71.32;34.75;;;;;;;;;;5088555;28;20515;-75
2023/01/21 08:50:59;;;;;;;60.47;32.15;;;;;;;;;;5089659;28;20557;-78
2023/01/21 08:53:25;;;;;;;57.78;30.77;;;;;;;;;;5087719;28;20492;-74
2023/01/21 08:55:51;;;;;;;62.28;30.15;;;;;;;;;;5084206;28;20052;-77
2023/01/21 08:58:17;;;;;;;58.20;30.75;;;;;;;;;;5083756;28;20036;-75
2023/01/21 09:00:43;;;;;;;60.25;31.15;;;;;;;;;;5080780;28;20028;-75
2023/01/21 09:03:10;;;;;;;54.72;28.77;;;;;;;;;;5082747;28;20029;-75
2023/01/21 09:05:36;;;;;;;56.42;28.63;;;;;;;;;;5086723;28;20036;-78
2023/01/21 09:08:02;;;;;;;56.90;29.48;;;;;;;;;;5071822;28;20040;-75
2023/01/21 09:13:13;;;;;;;59.67;31.58;;;;;;;;;;5087133;28;20047;-75
2023/01/21 09:15:39;;;;;;;56.53;32.03;;;;;;;;;;5088695;28;20035;-75
2023/01/21 09:18:05;;;;;;;49.75;28.73;;;;;;;;;;5084083;28;20028;-76
2023/01/21 09:20:32;;;;;;;55.45;29.27;;;;;;;;;;5084564;28;20051;-75
2023/01/21 09:22:58;;;;;;;397.92;231.02;;;;;;;;;;5081568;28;20030;-74
2023/01/21 09:25:24;;;;;;;65.90;33.72;;;;;;;;;;5079569;28;20020;-76
2023/01/21 09:27:50;;;;;;;55.85;30.05;;;;;;;;;;5077058;28;20028;-75
2023/01/21 09:30:16;;;;;;;59.65;31.00;;;;;;;;;;5081014;28;20130;-75
2023/01/21 09:32:42;;;;;;;55.78;30.85;;;;;;;;;;5085218;28;20024;-75
2023/01/21 09:35:08;;;;;;;54.22;29.63;;;;;;;;;;5085286;28;20437;-75
2023/01/21 09:37:36;;;;;;;57.00;30.77;;;;;;;;;;5086139;28;20111;-74
2023/01/21 09:40:02;;;;;;;52.13;31.17;;;;;;;;;;5088634;28;20032;-76
2023/01/21 09:42:33;;;;;;;52.15;30.98;;;;;;;;;;5088394;28;20035;-77
2023/01/21 09:45:00;;;;;;;54.10;31.65;;;;;;;;;;5086675;28;20405;-74
2023/01/21 09:47:35;;;;;;;54.95;30.85;;;;;;;;;;5086444;28;20036;-73
2023/01/21 09:50:13;;;;;;;53.92;31.33;;;;;;;;;;5083758;28;20033;-74
2023/01/21 09:52:44;;;;;;;53.42;30.30;;;;;;;;;;5093732;28;20488;-72
2023/01/21 09:55:21;;;;;;;53.65;30.70;;;;;;;;;;5089040;28;20131;-74
2023/01/21 09:58:05;;;;;;;54.92;31.48;;;;;;;;;;5090578;28;20404;-73
2023/01/21 10:00:31;;;;;;;55.50;30.63;;;;;;;;;;5093069;28;20032;-72
2023/01/21 10:03:18;;;;;;;50.78;29.70;;;;;;;;;;5089087;28;20028;-75
2023/01/21 10:06:03;;;;;;;53.97;28.75;;;;;;;;;;5090455;28;20377;-74
2023/01/21 10:08:32;;;;;;;56.42;30.70;;;;;;;;;;5088038;28;20070;-77
2023/01/21 10:10:58;;;;;;;55.05;30.67;;;;;;;;;;5083829;28;20099;-75
2023/01/21 10:13:42;;;;;;;52.83;30.90;;;;;;;;;;5086416;28;20063;-73
2023/01/21 10:16:19;;;;;;;50.72;29.70;;;;;;;;;;5087024;28;20017;-72
2023/01/21 10:18:48;;;;;;;55.38;29.92;;;;;;;;;;5092196;28;20044;-75
2023/01/21 10:21:14;;;;;;;53.08;29.00;;;;;;;;;;5092394;28;20405;-72
2023/01/21 10:23:42;;;;;;;48.35;28.38;;;;;;;;;;5083222;28;20415;-73
2023/01/21 10:26:09;;;;;;;51.33;29.88;;;;;;;;;;5088167;28;20028;-73
2023/01/21 10:28:38;;;;;;;60.22;32.72;;;;;;;;;;5090808;28;20050;-72
2023/01/21 10:31:08;;;;;;;57.08;32.10;;;;;;;;;;5105074;28;20024;-78
2023/01/21 10:33:34;;;;;;;51.72;29.88;;;;;;;;;;5090524;28;20032;-75
2023/01/21 10:36:00;;;;;;;45.92;29.38;;;;;;;;;;5100208;28;20032;-74
2023/01/21 10:38:41;;;;;;;43.50;27.40;;;;;;;;;;5087782;28;20032;-74
2023/01/21 10:41:26;;;;;;;43.75;27.33;;;;;;;;;;5096308;28;20038;-72
2023/01/21 10:43:57;;;;;;;42.78;26.75;;;;;;;;;;5088920;28;20028;-72
2023/01/21 10:46:36;;;;;;;46.10;27.88;;;;;;;;;;5091672;28;20047;-72
2023/01/21 10:49:21;;;;;;;43.70;27.35;;;;;;;;;;5087142;28;20107;-74
2023/01/21 10:51:51;;;;;;;44.53;26.73;;;;;;;;;;5090696;28;20051;-72
2023/01/21 10:54:23;;;;;;;42.72;25.48;;;;;;;;;;5095470;28;20104;-73
2023/01/21 10:56:57;;;;;;;41.45;24.15;;;;;;;;;;5094583;28;20108;-72
2023/01/21 10:59:25;;;;;;;40.78;23.52;;;;;;;;;;5096724;28;20498;-73
2023/01/21 11:01:56;;;;;;;33.10;23.85;;;;;;;;;;5072225;28;20052;-73
2023/01/21 11:04:23;;;;;;;33.00;21.73;;;;;;;;;;5080565;28;20027;-74
2023/01/21 11:06:57;;;;;;;34.30;23.17;;;;;;;;;;5082340;28;20077;-76
2023/01/21 11:09:26;;;;;;;31.42;22.30;;;;;;;;;;5075485;28;20128;-75
2023/01/21 11:11:52;;;;;;;30.85;21.73;;;;;;;;;;5085315;28;20059;-77
2023/01/21 11:14:18;;;;;;;34.53;22.73;;;;;;;;;;5084919;28;20036;-74
2023/01/21 11:16:49;;;;;;;36.60;23.50;;;;;;;;;;5083803;28;20541;-74
2023/01/21 11:19:22;;;;;;;34.20;22.67;;;;;;;;;;5083090;28;20535;-73
2023/01/21 11:22:07;;;;;;;36.20;22.00;;;;;;;;;;5081074;28;20035;-74
2023/01/21 11:24:42;;;;;;;31.85;22.50;;;;;;;;;;5083862;28;20111;-74
2023/01/21 11:27:16;;;;;;;32.15;22.38;;;;;;;;;;5092416;28;20373;-74
2023/01/21 11:29:42;;;;;;;33.03;23.50;;;;;;;;;;5095363;28;20042;-74
2023/01/21 11:32:16;;;;;;;32.95;23.35;;;;;;;;;;5091132;28;20030;-73
2023/01/21 11:34:46;;;;;;;32.42;22.08;;;;;;;;;;5092172;28;20024;-75
2023/01/21 11:37:20;;;;;;;35.22;23.33;;;;;;;;;;5081868;28;20096;-75
2023/01/21 11:39:51;;;;;;;35.08;23.75;;;;;;;;;;5090719;28;20020;-74
2023/01/21 11:42:17;;;;;;;35.00;21.30;;;;;;;;;;5079391;28;20032;-77
2023/01/21 11:45:00;;;;;;;32.17;20.90;;;;;;;;;;5079572;28;20059;-73
2023/01/21 11:47:39;;;;;;;29.08;19.70;;;;;;;;;;5081306;28;20025;-73
2023/01/21 11:50:18;;;;;;;29.42;19.58;;;;;;;;;;5080553;28;20031;-74
2023/01/21 11:52:44;;;;;;;31.30;19.60;;;;;;;;;;5084233;28;20021;-73
2023/01/21 11:55:25;;;;;;;29.23;20.13;;;;;;;;;;5085864;28;20048;-76
2023/01/21 11:57:53;;;;;;;27.77;16.30;;;;;;;;;;5075735;28;20039;-77
2023/01/21 12:00:20;;;;;;;24.33;14.35;;;;;;;;;;5070371;28;20537;-74
2023/01/21 12:02:55;;;;;;;24.10;14.68;;;;;;;;;;5080808;28;20086;-73
2023/01/21 12:05:26;;;;;;;23.92;14.93;;;;;;;;;;5076572;28;20021;-74
2023/01/21 12:07:52;;;;;;;22.35;14.60;;;;;;;;;;5079810;28;20539;-75
2023/01/21 12:10:18;;;;;;;19.23;14.35;;;;;;;;;;5080639;28;20052;-75
2023/01/21 12:12:52;;;;;;;24.70;14.88;;;;;;;;;;5081348;28;20410;-77
2023/01/21 12:15:44;;;;;;;37.40;21.17;;;;;;;;;;5081055;28;20082;-75
2023/01/21 12:18:19;;;;;;;26.27;16.23;;;;;;;;;;5048040;28;20060;-74
2023/01/21 12:20:54;;;;;;;27.63;17.27;;;;;;;;;;5078505;28;20988;-76
2023/01/21 12:23:39;;;;;;;22.95;15.52;;;;;;;;;;5074873;28;20028;-75
2023/01/21 12:26:21;;;;;;;25.98;16.15;;;;;;;;;;5076027;28;20032;-77
2023/01/21 12:28:50;;;;;;;22.70;14.30;;;;;;;;;;5084818;28;20177;-76
2023/01/21 12:31:30;;;;;;;24.60;14.82;;;;;;;;;;5077775;28;20031;-76
2023/01/21 12:33:56;;;;;;;20.80;14.55;;;;;;;;;;5080261;28;20375;-76
2023/01/21 12:36:30;;;;;;;23.80;15.40;;;;;;;;;;5080050;28;20033;-77
2023/01/21 12:39:11;;;;;;;24.23;14.38;;;;;;;;;;5078573;28;20044;-76
2023/01/21 12:41:37;;;;;;;20.92;14.50;;;;;;;;;;5076218;28;20056;-76
2023/01/21 12:44:12;;;;;;;20.63;13.23;;;;;;;;;;5080807;28;20036;-75
2023/01/21 12:46:43;;;;;;;20.63;13.85;;;;;;;;;;5085656;28;20028;-75
2023/01/21 12:49:15;;;;;;;19.92;12.90;;;;;;;;;;5084081;28;20387;-76
2023/01/21 12:51:43;;;;;;;18.60;13.18;;;;;;;;;;5077566;28;20213;-75
2023/01/21 12:54:14;;;;;;;21.60;13.23;;;;;;;;;;5078563;28;20020;-75
2023/01/21 12:56:43;;;;;;;21.88;12.68;;;;;;;;;;5084186;28;20093;-77
2023/01/21 12:59:18;;;;;;;19.15;12.25;;;;;;;;;;5105059;28;20051;-75
2023/01/21 13:01:48;;;;;;;19.92;13.13;;;;;;;;;;5096436;28;20028;-75
2023/01/21 13:04:14;;;;;;;19.27;13.00;;;;;;;;;;5072191;28;20024;-75
2023/01/21 13:06:44;;;;;;;19.35;11.85;;;;;;;;;;5095540;28;20027;-77
2023/01/21 13:09:13;;;;;;;19.95;12.23;;;;;;;;;;5108355;28;20081;-75
2023/01/21 13:11:42;;;;;;;17.13;11.63;;;;;;;;;;5084211;28;20048;-75
2023/01/21 13:14:08;;;;;;;18.08;11.25;;;;;;;;;;5087858;28;20020;-74
2023/01/21 13:16:43;;;;;;;24.67;15.95;;;;;;;;;;5068207;28;20039;-74
2023/01/21 13:19:12;;;;;;;54.50;29.10;;;;;;;;;;5084592;28;20064;-75
2023/01/21 13:21:40;;;;;;;17.85;11.32;;;;;;;;;;5083376;28;21156;-75
2023/01/21 13:24:35;;;;;;;16.10;10.55;;;;;;;;;;5082439;28;20036;-74
2023/01/21 13:27:01;;;;;;;14.50;10.10;;;;;;;;;;5031339;28;20086;-72
2023/01/21 13:29:50;;;;;;;16.25;10.85;;;;;;;;;;5081587;28;20024;-74
2023/01/21 13:32:19;;;;;;;14.93;9.93;;;;;;;;;;5086095;28;20473;-76
2023/01/21 13:34:51;;;;;;;17.17;10.82;;;;;;;;;;5068721;28;20028;-71
2023/01/21 13:37:17;;;;;;;16.15;9.93;;;;;;;;;;5085467;28;20059;-74
2023/01/21 13:39:43;;;;;;;15.55;10.50;;;;;;;;;;5084311;28;20445;-73
2023/01/21 13:42:21;;;;;;;20.88;11.20;;;;;;;;;;5087541;28;20036;-73
2023/01/21 13:44:56;;;;;;;23.08;11.13;;;;;;;;;;5080487;28;20056;-73
2023/01/21 13:47:34;;;;;;;17.55;11.38;;;;;;;;;;5082592;28;20054;-72
2023/01/21 13:50:06;;;;;;;12.10;9.00;;;;;;;;;;5082839;28;20038;-74
2023/01/21 13:52:41;;;;;;;15.73;8.80;;;;;;;;;;5079943;28;20028;-74
2023/01/21 13:55:15;;;;;;;11.80;8.40;;;;;;;;;;5082038;28;20028;-75
2023/01/21 13:58:00;;;;;;;12.05;8.93;;;;;;;;;;5082682;28;20485;-74
2023/01/21 14:00:45;;;;;;;13.73;9.00;;;;;;;;;;5084857;28;20429;-74
2023/01/21 14:03:14;;;;;;;12.90;8.45;;;;;;;;;;5077346;28;20051;-77
2023/01/21 14:05:46;;;;;;;12.70;8.50;;;;;;;;;;5092693;28;20024;-74
2023/01/21 14:08:33;;;;;;;13.52;8.60;;;;;;;;;;5090871;28;20107;-79
2023/01/21 14:11:08;;;;;;;14.57;9.30;;;;;;;;;;5092877;28;20468;-76
2023/01/21 14:13:53;;;;;;;13.50;8.07;;;;;;;;;;5095100;28;20115;-74
2023/01/21 14:16:31;;;;;;;14.88;8.15;;;;;;;;;;5102428;28;20027;-75
2023/01/21 14:19:23;;;;;;;12.38;7.95;;;;;;;;;;5113168;28;20032;-75
2023/01/21 14:21:49;;;;;;;14.10;8.32;;;;;;;;;;5070823;28;20072;-74
2023/01/21 14:24:35;;;;;;;13.43;9.52;;;;;;;;;;5079812;28;20048;-74
2023/01/21 14:27:04;;;;;;;12.93;8.20;;;;;;;;;;5068444;28;20116;-75
2023/01/21 14:29:33;;;;;;;11.68;7.75;;;;;;;;;;5074462;28;20020;-74
2023/01/21 14:32:15;;;;;;;13.75;8.88;;;;;;;;;;5092855;28;20427;-75
2023/01/21 14:34:41;;;;;;;14.75;9.77;;;;;;;;;;5092369;28;20036;-75
2023/01/21 14:37:10;;;;;;;15.05;9.38;;;;;;;;;;5090769;28;20473;-75